Time;durP1;ratioP1;P1;durP2;ratioP2;P2;SDS_P1;SDS_P2;PMS_P1;PMS_P2;Temp;Humidity;BMP_temperature;BMP_pressure;BME280_temperature;BME280_humidity;BME280_pressure;Samples;Min_cycle;Max_cycle;Signal;HPM_P1;HPM_P2
2021/07/24 00:02:27;;;;;;;17.52;13.95;;;18.40;71.10;;;;;;5032275;29;20076;-70
2021/07/24 00:04:59;;;;;;;16.90;12.70;;;18.40;71.70;;;;;;5029837;29;20061;-69
2021/07/24 00:07:31;;;;;;;17.05;13.90;;;18.40;71.20;;;;;;5032039;29;20787;-70
2021/07/24 00:10:04;;;;;;;17.63;13.48;;;18.40;72.00;;;;;;5030375;29;20144;-68
2021/07/24 00:12:36;;;;;;;16.40;13.02;;;18.40;71.90;;;;;;5030133;29;20704;-70
2021/07/24 00:15:08;;;;;;;17.08;13.65;;;18.30;71.40;;;;;;5030690;29;20049;-70
2021/07/24 00:17:40;;;;;;;15.38;13.45;;;18.30;71.30;;;;;;5031636;29;20135;-70
2021/07/24 00:20:12;;;;;;;16.20;13.30;;;18.30;71.50;;;;;;5033376;29;20060;-70
2021/07/24 00:22:44;;;;;;;15.15;13.52;;;18.30;72.30;;;;;;5034690;29;20456;-71
2021/07/24 00:25:16;;;;;;;14.80;12.50;;;18.30;71.70;;;;;;5029981;29;20132;-71
2021/07/24 00:27:48;;;;;;;16.67;13.00;;;18.30;71.50;;;;;;5034679;29;20037;-71
2021/07/24 00:30:20;;;;;;;15.95;14.15;;;18.30;72.20;;;;;;5030663;29;20057;-70
2021/07/24 00:32:59;;;;;;;17.70;14.48;;;18.30;72.00;;;;;;5047036;29;20037;-70
2021/07/24 00:35:33;;;;;;;18.13;14.88;;;18.20;72.90;;;;;;5029891;29;20045;-72
2021/07/24 00:38:05;;;;;;;15.35;13.00;;;18.20;72.40;;;;;;5048667;29;20050;-72
2021/07/24 00:40:43;;;;;;;14.25;12.80;;;18.20;72.50;;;;;;5031219;29;20124;-70
2021/07/24 00:43:17;;;;;;;15.35;12.88;;;18.20;73.20;;;;;;5032678;29;20128;-69
2021/07/24 00:45:52;;;;;;;19.92;13.35;;;18.20;73.80;;;;;;5035745;29;20049;-71
2021/07/24 00:48:25;;;;;;;17.00;13.57;;;18.20;73.00;;;;;;5031166;29;20275;-70
2021/07/24 00:51:26;;;;;;;15.75;13.85;;;18.20;74.00;;;;;;5034065;29;20184;-70
2021/07/24 00:54:04;;;;;;;14.65;13.10;;;18.10;74.90;;;;;;5033187;29;20098;-70
2021/07/24 00:56:42;;;;;;;17.05;13.85;;;18.10;73.30;;;;;;5030775;29;20908;-71
2021/07/24 00:59:14;;;;;;;18.65;15.23;;;18.20;74.40;;;;;;5029263;29;20132;-70
2021/07/24 01:01:47;;;;;;;18.95;14.45;;;18.20;75.00;;;;;;5030767;29;20542;-71
2021/07/24 01:04:20;;;;;;;16.38;14.18;;;18.10;75.00;;;;;;5029349;29;20056;-69
2021/07/24 01:06:53;;;;;;;15.05;13.45;;;18.10;75.00;;;;;;5043624;29;20875;-69
2021/07/24 01:09:26;;;;;;;17.98;14.20;;;18.10;75.40;;;;;;5032806;29;20099;-71
2021/07/24 01:12:03;;;;;;;15.00;13.50;;;18.10;75.50;;;;;;5038559;29;20045;-70
2021/07/24 01:14:38;;;;;;;15.80;13.90;;;18.10;74.50;;;;;;5034805;29;20519;-69
2021/07/24 01:17:11;;;;;;;15.15;13.55;;;18.10;75.90;;;;;;5032390;29;20053;-70
2021/07/24 01:19:46;;;;;;;15.45;13.77;;;18.00;75.80;;;;;;5032374;29;20052;-70
2021/07/24 01:22:19;;;;;;;16.40;13.55;;;18.10;74.80;;;;;;5028627;29;20595;-71
2021/07/24 01:24:51;;;;;;;15.35;13.70;;;18.00;74.10;;;;;;5034251;29;20057;-69
2021/07/24 01:27:23;;;;;;;15.02;13.38;;;18.10;73.80;;;;;;5025497;29;20077;-69
2021/07/24 01:29:57;;;;;;;15.52;12.95;;;18.10;74.10;;;;;;5041613;29;20056;-69
2021/07/24 01:32:37;;;;;;;16.05;13.90;;;18.10;74.50;;;;;;5031001;29;20053;-69
2021/07/24 01:35:10;;;;;;;19.70;14.45;;;18.10;75.10;;;;;;5031325;29;20058;-69
2021/07/24 01:37:44;;;;;;;17.08;14.07;;;18.00;75.30;;;;;;5042336;29;20133;-69
2021/07/24 01:40:17;;;;;;;15.98;14.27;;;18.00;74.30;;;;;;5029398;29;20408;-71
2021/07/24 01:42:50;;;;;;;15.25;13.52;;;17.90;75.30;;;;;;5045498;29;20053;-70
2021/07/24 01:45:21;;;;;;;16.13;13.93;;;17.90;74.40;;;;;;5027655;29;20617;-70
2021/07/24 01:47:53;;;;;;;16.08;12.98;;;17.90;74.70;;;;;;5028266;29;20489;-71
2021/07/24 01:53:18;;;;;;;15.85;13.48;;;17.90;74.70;;;;;;5029371;29;20531;-71
2021/07/24 01:55:53;;;;;;;15.40;13.75;;;17.80;74.50;;;;;;5030107;29;20049;-70
2021/07/24 01:58:33;;;;;;;16.90;14.13;;;17.80;75.00;;;;;;5032181;29;20073;-71
2021/07/24 02:01:29;;;;;;;17.10;13.70;;;17.80;74.40;;;;;;5029818;29;20053;-70
2021/07/24 02:04:10;;;;;;;15.07;13.18;;;17.80;75.00;;;;;;5027080;29;20393;-72
2021/07/24 02:06:46;;;;;;;17.60;14.15;;;17.80;74.30;;;;;;5030232;29;20087;-70
2021/07/24 02:09:38;;;;;;;17.33;14.30;;;17.80;73.90;;;;;;5029483;29;20053;-70
2021/07/24 02:12:16;;;;;;;18.00;13.32;;;17.80;74.80;;;;;;5030907;29;20133;-71
2021/07/24 02:14:52;;;;;;;16.25;13.95;;;17.70;74.40;;;;;;5029304;29;20480;-70
2021/07/24 02:17:38;;;;;;;14.75;13.23;;;17.70;74.70;;;;;;5032127;29;20053;-70
2021/07/24 02:20:11;;;;;;;18.20;13.60;;;17.70;74.80;;;;;;5031790;29;20053;-70
2021/07/24 02:22:43;;;;;;;15.63;13.60;;;17.60;74.90;;;;;;5045750;29;20063;-70
2021/07/24 02:25:15;;;;;;;16.70;13.52;;;17.70;75.60;;;;;;5041799;29;20144;-71
2021/07/24 02:27:49;;;;;;;15.13;13.52;;;17.60;75.00;;;;;;5035759;29;20150;-70
2021/07/24 02:30:21;;;;;;;16.10;14.07;;;17.60;74.90;;;;;;5044012;29;20049;-70
2021/07/24 02:32:53;;;;;;;16.35;13.40;;;17.60;75.10;;;;;;5025677;29;20132;-70
2021/07/24 02:35:25;;;;;;;15.63;13.95;;;17.60;74.50;;;;;;5027383;29;20117;-70
2021/07/24 02:38:16;;;;;;;19.55;14.45;;;17.60;75.60;;;;;;5030827;29;20049;-70
2021/07/24 02:40:51;;;;;;;17.35;14.25;;;17.60;74.60;;;;;;5030971;29;20712;-72
2021/07/24 02:43:25;;;;;;;16.08;14.35;;;17.60;74.90;;;;;;5034396;29;20073;-67
2021/07/24 02:45:57;;;;;;;16.73;14.45;;;17.50;75.50;;;;;;5029031;29;20283;-69
2021/07/24 02:48:32;;;;;;;14.93;13.00;;;17.50;75.40;;;;;;5032241;29;20054;-70
2021/07/24 02:51:28;;;;;;;15.95;13.82;;;17.50;75.20;;;;;;5025993;29;20432;-70
2021/07/24 02:54:01;;;;;;;15.00;13.13;;;17.50;75.80;;;;;;5035679;29;20131;-70
2021/07/24 02:56:36;;;;;;;15.43;13.75;;;17.50;76.40;;;;;;5035344;29;20049;-72
2021/07/24 02:59:09;;;;;;;16.92;13.75;;;17.40;76.30;;;;;;5033991;29;20048;-71
2021/07/24 03:01:42;;;;;;;16.38;14.63;;;17.40;76.70;;;;;;5030888;29;20057;-71
2021/07/24 03:04:14;;;;;;;15.65;13.43;;;17.40;75.80;;;;;;5026698;29;20081;-70
2021/07/24 03:06:46;;;;;;;15.93;13.43;;;17.40;76.90;;;;;;5028315;29;20049;-71
2021/07/24 03:09:18;;;;;;;16.10;14.35;;;17.30;76.20;;;;;;5025246;29;20132;-70
2021/07/24 03:11:50;;;;;;;15.85;14.07;;;17.30;76.60;;;;;;5030812;29;20037;-71
2021/07/24 03:14:22;;;;;;;18.75;13.25;;;17.30;76.00;;;;;;5025609;29;20106;-71
2021/07/24 03:16:54;;;;;;;14.52;13.02;;;17.40;76.60;;;;;;5029747;29;20464;-72
2021/07/24 03:19:26;;;;;;;14.38;12.75;;;17.30;76.40;;;;;;5031059;29;20045;-72
2021/07/24 03:21:57;;;;;;;15.10;13.48;;;17.30;76.70;;;;;;5042723;29;20161;-72
2021/07/24 03:24:29;;;;;;;16.70;13.40;;;17.30;77.10;;;;;;5034481;29;20064;-71
2021/07/24 03:27:01;;;;;;;16.23;13.93;;;17.30;76.80;;;;;;5032423;29;20045;-71
2021/07/24 03:29:33;;;;;;;15.20;13.60;;;17.20;77.10;;;;;;5034190;29;20052;-69
2021/07/24 03:32:05;;;;;;;15.07;13.48;;;17.20;77.20;;;;;;5031015;29;20066;-69
2021/07/24 03:34:37;;;;;;;16.48;13.13;;;17.20;78.30;;;;;;5032274;29;20078;-70
2021/07/24 03:37:09;;;;;;;15.52;13.90;;;17.20;77.90;;;;;;5031883;29;20053;-72
2021/07/24 03:39:41;;;;;;;15.27;13.45;;;17.20;77.30;;;;;;5035120;29;20124;-70
2021/07/24 03:42:13;;;;;;;14.90;13.27;;;17.20;76.50;;;;;;5032074;29;20093;-70
2021/07/24 03:44:45;;;;;;;15.20;13.65;;;17.10;76.00;;;;;;5032770;29;20080;-72
2021/07/24 03:47:18;;;;;;;14.85;13.25;;;17.10;76.20;;;;;;5031284;29;20060;-70
2021/07/24 03:49:50;;;;;;;15.25;13.63;;;17.10;76.70;;;;;;5048609;29;20049;-69
2021/07/24 03:52:22;;;;;;;17.17;15.30;;;17.10;77.50;;;;;;5034252;29;20401;-70
2021/07/24 03:54:54;;;;;;;16.20;14.35;;;17.00;78.00;;;;;;5029345;29;20037;-70
2021/07/24 03:57:26;;;;;;;16.02;13.30;;;17.00;77.90;;;;;;5033552;29;21036;-69
2021/07/24 04:00:01;;;;;;;14.93;12.85;;;17.00;78.20;;;;;;5048991;29;20113;-70
2021/07/24 04:02:34;;;;;;;16.90;13.63;;;16.90;78.60;;;;;;5033796;29;20053;-70
2021/07/24 04:05:06;;;;;;;16.65;13.95;;;17.00;78.00;;;;;;5033104;29;20045;-70
2021/07/24 04:07:39;;;;;;;16.63;14.00;;;17.00;77.60;;;;;;5035748;29;20123;-71
2021/07/24 04:10:12;;;;;;;16.42;12.95;;;17.00;78.10;;;;;;5032938;29;20057;-71
2021/07/24 04:12:44;;;;;;;15.65;13.05;;;17.00;77.20;;;;;;5027941;29;20136;-71
2021/07/24 04:15:16;;;;;;;14.40;12.90;;;17.10;77.70;;;;;;5031006;29;20734;-71
2021/07/24 04:17:48;;;;;;;14.65;12.98;;;17.10;77.30;;;;;;5032537;29;20583;-70
2021/07/24 04:20:21;;;;;;;14.68;13.18;;;17.10;77.00;;;;;;5032348;29;20078;-70
2021/07/24 04:22:54;;;;;;;14.73;13.00;;;17.10;77.30;;;;;;5032077;29;20044;-71
2021/07/24 04:25:26;;;;;;;15.20;13.55;;;17.20;77.50;;;;;;5027439;29;20049;-72
2021/07/24 04:27:58;;;;;;;15.48;13.40;;;17.20;76.70;;;;;;5033871;29;20392;-71
2021/07/24 04:30:32;;;;;;;16.55;13.02;;;17.30;76.80;;;;;;5029048;29;20050;-72
2021/07/24 04:33:04;;;;;;;16.73;13.98;;;17.30;77.10;;;;;;5030271;29;20049;-71
2021/07/24 04:35:36;;;;;;;15.13;13.02;;;17.30;77.00;;;;;;5031311;29;20128;-71
2021/07/24 04:38:08;;;;;;;15.07;13.38;;;17.30;76.30;;;;;;5034881;29;20088;-70
2021/07/24 04:40:40;;;;;;;15.25;13.65;;;17.40;76.70;;;;;;5030202;29;20053;-70
2021/07/24 04:43:16;;;;;;;16.55;14.85;;;17.30;76.60;;;;;;5034975;29;20112;-70
2021/07/24 04:45:48;;;;;;;16.25;14.27;;;17.40;76.40;;;;;;5030954;29;20529;-72
2021/07/24 04:48:20;;;;;;;14.85;13.32;;;17.40;76.20;;;;;;5030870;29;20054;-71
2021/07/24 04:50:57;;;;;;;17.08;14.73;;;17.50;76.10;;;;;;5032390;29;20236;-70
2021/07/24 04:53:32;;;;;;;15.02;13.45;;;17.40;76.60;;;;;;5030071;29;20045;-70
2021/07/24 04:56:06;;;;;;;17.08;14.70;;;17.50;76.10;;;;;;5030042;29;20056;-71
2021/07/24 04:58:38;;;;;;;17.42;14.30;;;17.50;76.40;;;;;;5032853;29;20042;-70
2021/07/24 05:01:12;;;;;;;15.38;13.52;;;17.50;76.40;;;;;;5028721;29;20516;-70
2021/07/24 05:03:44;;;;;;;16.42;14.57;;;17.50;76.40;;;;;;5032335;29;20060;-70
2021/07/24 05:06:16;;;;;;;14.73;13.20;;;17.50;77.20;;;;;;5028769;29;20136;-71
2021/07/24 05:08:48;;;;;;;16.05;14.25;;;17.50;77.00;;;;;;5033385;29;20101;-71
2021/07/24 05:11:20;;;;;;;16.45;13.95;;;17.40;76.70;;;;;;5029740;29;20069;-70
2021/07/24 05:13:52;;;;;;;15.85;13.85;;;17.50;76.90;;;;;;5036517;29;20525;-70
2021/07/24 05:16:24;;;;;;;17.23;14.35;;;17.40;77.10;;;;;;5029531;29;20041;-71
2021/07/24 05:18:56;;;;;;;16.73;14.75;;;17.40;77.30;;;;;;5033264;29;20049;-72
2021/07/24 05:21:28;;;;;;;18.52;14.10;;;17.40;76.90;;;;;;5033183;29;20133;-71
2021/07/24 05:24:00;;;;;;;15.77;14.18;;;17.50;76.60;;;;;;5030555;29;20045;-71
2021/07/24 05:26:32;;;;;;;16.00;14.35;;;17.60;77.50;;;;;;5031782;29;20041;-73
2021/07/24 05:29:04;;;;;;;15.65;13.43;;;17.70;77.70;;;;;;5031238;29;20081;-71
2021/07/24 05:31:36;;;;;;;16.65;14.70;;;17.80;77.40;;;;;;5030255;29;20046;-71
2021/07/24 05:34:08;;;;;;;15.25;13.65;;;18.00;76.60;;;;;;5028191;29;20067;-71
2021/07/24 05:36:40;;;;;;;15.75;13.95;;;18.10;76.80;;;;;;5029796;29;20105;-72
2021/07/24 05:39:12;;;;;;;15.70;14.20;;;18.20;77.20;;;;;;5032465;29;20080;-70
2021/07/24 05:41:44;;;;;;;16.77;15.05;;;18.40;77.30;;;;;;5028242;29;20592;-70
2021/07/24 05:44:20;;;;;;;16.80;14.13;;;18.60;77.40;;;;;;5031314;29;20141;-70
2021/07/24 05:46:52;;;;;;;17.23;15.40;;;18.60;77.50;;;;;;5029063;29;20051;-72
2021/07/24 05:49:24;;;;;;;17.23;15.00;;;18.60;76.90;;;;;;5032125;29;20046;-72
2021/07/24 05:51:56;;;;;;;17.52;15.57;;;18.70;76.30;;;;;;5029135;29;20123;-72
2021/07/24 05:54:28;;;;;;;17.23;15.50;;;18.80;76.00;;;;;;5027885;29;20588;-71
2021/07/24 05:57:00;;;;;;;16.17;14.50;;;18.70;76.80;;;;;;5027603;29;20073;-71
2021/07/24 05:59:33;;;;;;;15.40;13.90;;;18.70;76.50;;;;;;5031564;29;20065;-71
2021/07/24 06:02:06;;;;;;;16.45;14.80;;;18.70;76.70;;;;;;5028511;29;20057;-71
2021/07/24 06:04:45;;;;;;;17.48;15.40;;;18.60;77.10;;;;;;5026857;29;20482;-71
2021/07/24 06:07:16;;;;;;;16.83;14.90;;;18.60;76.80;;;;;;5032046;29;20045;-72
2021/07/24 06:09:49;;;;;;;16.98;15.00;;;18.50;77.10;;;;;;5029599;29;20087;-72
2021/07/24 06:12:21;;;;;;;19.15;15.50;;;18.40;77.40;;;;;;5036182;29;20513;-71
2021/07/24 06:14:53;;;;;;;17.70;14.20;;;18.40;77.50;;;;;;5029825;29;20045;-73
2021/07/24 06:17:24;;;;;;;17.80;15.60;;;18.40;77.20;;;;;;5032167;29;20084;-72
2021/07/24 06:19:57;;;;;;;17.17;15.48;;;18.40;77.60;;;;;;5031942;29;20045;-72
2021/07/24 06:22:28;;;;;;;16.00;14.32;;;18.40;78.10;;;;;;5030039;29;20147;-71
2021/07/24 06:25:00;;;;;;;18.40;14.88;;;18.30;78.10;;;;;;5032664;29;20097;-72
2021/07/24 06:27:34;;;;;;;16.63;14.90;;;18.30;77.90;;;;;;5031127;29;20103;-72
2021/07/24 06:30:08;;;;;;;17.20;15.32;;;18.30;78.20;;;;;;5032679;29;20045;-71
2021/07/24 06:32:40;;;;;;;18.95;16.10;;;18.20;78.30;;;;;;5031271;29;20108;-71
2021/07/24 06:35:12;;;;;;;21.27;15.55;;;18.20;78.70;;;;;;5035511;29;20065;-70
2021/07/24 06:37:44;;;;;;;19.75;15.85;;;18.30;78.80;;;;;;5030145;29;20069;-71
2021/07/24 06:40:16;;;;;;;18.90;16.73;;;18.40;79.30;;;;;;5030094;29;20049;-70
2021/07/24 06:42:48;;;;;;;17.45;15.38;;;18.40;79.50;;;;;;5028751;29;20064;-71
2021/07/24 06:45:21;;;;;;;17.88;16.08;;;18.40;80.80;;;;;;5025742;29;20148;-72
2021/07/24 06:47:53;;;;;;;20.23;17.35;;;18.50;79.90;;;;;;5030822;29;20101;-71
2021/07/24 06:50:25;;;;;;;20.08;16.90;;;18.50;79.40;;;;;;5029045;29;20805;-72
2021/07/24 06:53:00;;;;;;;21.23;16.20;;;18.60;79.60;;;;;;5028469;29;20566;-71
2021/07/24 06:55:32;;;;;;;18.98;16.08;;;18.70;79.20;;;;;;5027194;29;20057;-71
2021/07/24 06:58:04;;;;;;;17.08;15.20;;;18.70;79.50;;;;;;5026863;29;20081;-72
2021/07/24 07:00:36;;;;;;;19.33;15.32;;;18.70;80.50;;;;;;5027837;29;20133;-72
2021/07/24 07:03:08;;;;;;;17.23;15.35;;;18.70;79.90;;;;;;5029060;29;20096;-72
2021/07/24 07:05:40;;;;;;;17.75;15.85;;;18.70;79.20;;;;;;5026384;29;20068;-71
2021/07/24 07:08:12;;;;;;;19.08;15.45;;;18.70;80.40;;;;;;5030969;29;20033;-71
2021/07/24 07:10:43;;;;;;;18.02;16.13;;;18.80;80.80;;;;;;5027655;29;20101;-73
2021/07/24 07:13:15;;;;;;;18.35;14.38;;;18.80;79.00;;;;;;5028010;29;20049;-71
2021/07/24 07:15:47;;;;;;;16.73;14.90;;;18.80;79.70;;;;;;5025166;29;20579;-71
2021/07/24 07:18:21;;;;;;;15.82;13.32;;;18.90;78.80;;;;;;5030308;29;20064;-71
2021/07/24 07:20:53;;;;;;;17.25;15.15;;;19.00;79.10;;;;;;5026654;29;20037;-71
2021/07/24 07:23:25;;;;;;;15.57;13.63;;;19.00;77.60;;;;;;5028445;29;20504;-71
2021/07/24 07:25:57;;;;;;;15.52;13.93;;;19.00;78.20;;;;;;5027505;29;20045;-71
2021/07/24 07:28:29;;;;;;;15.90;14.20;;;19.10;78.00;;;;;;5028667;29;20045;-72
2021/07/24 07:31:03;;;;;;;16.73;14.48;;;19.10;80.10;;;;;;5033774;29;20048;-71
2021/07/24 07:33:35;;;;;;;16.45;14.52;;;19.10;78.20;;;;;;5026505;29;20128;-71
2021/07/24 07:36:07;;;;;;;18.13;15.00;;;19.20;79.50;;;;;;5025808;29;20049;-72
2021/07/24 07:38:39;;;;;;;15.38;13.77;;;19.20;81.20;;;;;;5028298;29;20133;-72
2021/07/24 07:41:12;;;;;;;17.48;15.23;;;19.30;82.60;;;;;;5027170;29;20053;-72
2021/07/24 07:43:45;;;;;;;16.60;14.90;;;19.40;82.00;;;;;;5027934;29;20057;-71
2021/07/24 07:46:17;;;;;;;16.83;15.23;;;19.50;82.90;;;;;;5028434;29;20049;-72
2021/07/24 07:48:49;;;;;;;18.70;15.10;;;19.60;81.80;;;;;;5032911;29;20042;-72
2021/07/24 07:51:21;;;;;;;16.83;14.73;;;19.70;79.00;;;;;;5025359;29;20149;-71
2021/07/24 07:53:53;;;;;;;19.25;15.38;;;19.80;79.10;;;;;;5028518;29;20084;-71
2021/07/24 07:56:25;;;;;;;16.27;14.68;;;19.90;79.20;;;;;;5025582;29;20041;-72
2021/07/24 07:58:56;;;;;;;17.52;15.73;;;20.00;78.40;;;;;;5029977;29;20101;-71
2021/07/24 08:01:28;;;;;;;18.38;15.90;;;20.20;79.50;;;;;;5028158;29;20142;-73
2021/07/24 08:04:01;;;;;;;17.80;15.95;;;20.30;78.20;;;;;;5024861;29;20061;-74
2021/07/24 08:06:33;;;;;;;17.88;15.98;;;20.60;78.90;;;;;;5027448;29;20045;-72
2021/07/24 08:09:08;;;;;;;20.25;17.20;;;20.80;78.90;;;;;;5032132;29;20060;-74
2021/07/24 08:11:39;;;;;;;18.17;16.38;;;21.10;78.00;;;;;;5043638;29;20402;-72
2021/07/24 08:14:13;;;;;;;18.52;16.73;;;21.40;78.30;;;;;;5034486;29;20053;-73
2021/07/24 08:16:45;;;;;;;18.92;17.13;;;21.70;78.30;;;;;;5032507;29;20050;-72
2021/07/24 08:19:17;;;;;;;19.10;17.10;;;21.90;76.90;;;;;;5030833;29;20141;-74
2021/07/24 08:21:49;;;;;;;22.35;17.08;;;22.00;74.90;;;;;;5032641;29;20101;-71
2021/07/24 08:24:21;;;;;;;19.40;17.42;;;22.20;74.30;;;;;;5018168;29;20166;-70
2021/07/24 08:26:52;;;;;;;19.60;17.70;;;22.20;74.30;;;;;;5029651;29;20077;-70
2021/07/24 08:29:24;;;;;;;20.10;17.55;;;22.40;74.10;;;;;;5033526;29;20169;-71
2021/07/24 08:31:58;;;;;;;19.02;17.02;;;22.50;73.30;;;;;;5027797;29;20150;-71
2021/07/24 08:34:30;;;;;;;18.02;16.33;;;22.70;72.50;;;;;;5030444;29;20157;-71
2021/07/24 08:37:02;;;;;;;19.73;17.90;;;22.90;71.50;;;;;;5028711;29;20045;-71
2021/07/24 08:39:35;;;;;;;19.65;17.65;;;23.00;71.80;;;;;;5032227;29;20148;-71
2021/07/24 08:42:07;;;;;;;19.60;17.63;;;23.10;71.40;;;;;;5028038;29;20074;-71
2021/07/24 08:44:39;;;;;;;19.65;17.75;;;23.30;69.90;;;;;;5032476;29;20052;-71
2021/07/24 08:47:11;;;;;;;22.65;17.83;;;23.50;69.90;;;;;;5032190;29;20140;-70
2021/07/24 08:49:43;;;;;;;19.98;17.98;;;23.60;71.70;;;;;;5030990;29;20080;-69
2021/07/24 08:52:19;;;;;;;19.55;17.55;;;23.80;69.30;;;;;;5031348;29;20152;-71
2021/07/24 08:54:51;;;;;;;21.92;17.15;;;24.00;69.50;;;;;;5032701;29;20068;-72
2021/07/24 08:57:27;;;;;;;19.90;17.73;;;24.10;69.30;;;;;;5031089;29;20064;-71
2021/07/24 09:00:04;;;;;;;19.95;17.83;;;24.30;64.30;;;;;;5032355;29;20053;-71
2021/07/24 09:02:38;;;;;;;20.05;18.17;;;24.40;65.80;;;;;;5030573;29;21048;-73
2021/07/24 09:05:12;;;;;;;18.88;17.17;;;24.50;63.30;;;;;;5037840;29;20053;-72
2021/07/24 09:07:47;;;;;;;18.65;16.85;;;24.70;61.50;;;;;;5029824;29;20124;-71
2021/07/24 09:10:20;;;;;;;18.48;16.70;;;24.80;62.90;;;;;;5031407;29;20042;-73
2021/07/24 09:12:56;;;;;;;18.35;16.55;;;24.80;60.40;;;;;;5030937;29;20121;-73
2021/07/24 09:15:28;;;;;;;18.42;16.58;;;24.80;62.10;;;;;;5029348;29;20156;-74
2021/07/24 09:18:00;;;;;;;18.27;16.08;;;24.90;61.20;;;;;;5031112;29;20535;-72
2021/07/24 09:20:33;;;;;;;19.17;17.17;;;24.90;57.90;;;;;;5028169;29;20061;-73
2021/07/24 09:23:47;;;;;;;17.88;16.20;;;25.00;60.40;;;;;;5031753;29;20053;-74
2021/07/24 09:26:34;;;;;;;19.48;17.58;;;25.20;59.70;;;;;;4991191;29;20054;-74
2021/07/24 09:29:11;;;;;;;18.92;17.17;;;25.20;63.00;;;;;;4990443;29;20065;-73
2021/07/24 09:31:43;;;;;;;19.02;17.23;;;25.30;62.00;;;;;;5017927;29;20056;-75
2021/07/24 09:34:16;;;;;;;18.48;16.67;;;25.30;62.30;;;;;;5033825;29;20056;-75
2021/07/24 09:36:47;;;;;;;19.55;17.67;;;25.30;62.20;;;;;;5029190;29;20519;-75
2021/07/24 09:39:26;;;;;;;19.60;17.77;;;25.40;63.50;;;;;;5029137;29;20052;-74
2021/07/24 09:42:12;;;;;;;19.75;17.80;;;25.40;63.10;;;;;;5029219;29;20077;-75
2021/07/24 09:44:43;;;;;;;20.02;18.13;;;25.20;62.70;;;;;;5045366;29;20814;-75
2021/07/24 09:47:29;;;;;;;20.35;18.35;;;25.30;63.00;;;;;;5028027;29;20607;-74
2021/07/24 09:50:15;;;;;;;20.02;18.13;;;25.30;63.50;;;;;;5031469;29;20770;-75
2021/07/24 09:52:48;;;;;;;20.73;18.67;;;25.40;63.60;;;;;;5031039;29;20555;-75
2021/07/24 09:55:25;;;;;;;19.65;17.95;;;25.30;64.00;;;;;;5026981;29;20052;-74
2021/07/24 09:57:59;;;;;;;20.77;18.77;;;25.40;63.50;;;;;;5044400;29;20064;-74
2021/07/24 10:00:33;;;;;;;19.67;17.98;;;25.40;63.70;;;;;;5032470;29;20102;-74
2021/07/24 10:03:06;;;;;;;20.48;18.67;;;25.60;64.10;;;;;;5029448;29;20647;-75
2021/07/24 10:05:41;;;;;;;20.67;18.67;;;25.70;62.30;;;;;;5026557;29;20049;-75
2021/07/24 10:08:16;;;;;;;20.85;18.95;;;25.70;62.60;;;;;;5027514;29;20149;-75
2021/07/24 10:10:51;;;;;;;20.02;18.15;;;25.70;63.50;;;;;;5029276;29;20524;-75
2021/07/24 10:13:23;;;;;;;21.08;19.08;;;25.80;62.90;;;;;;5037837;29;20144;-75
2021/07/24 10:15:56;;;;;;;20.55;18.50;;;25.90;63.10;;;;;;5032237;29;20499;-75
2021/07/24 10:18:28;;;;;;;20.15;18.35;;;25.90;62.30;;;;;;5033683;29;20060;-75
2021/07/24 10:21:01;;;;;;;21.42;19.35;;;25.90;61.70;;;;;;5029828;29;20136;-76
2021/07/24 10:23:33;;;;;;;20.88;18.92;;;25.90;61.10;;;;;;5030955;29;20060;-75
2021/07/24 10:26:31;;;;;;;21.45;19.50;;;26.00;62.20;;;;;;5029419;29;20045;-75
2021/07/24 10:29:09;;;;;;;20.90;19.02;;;26.10;60.40;;;;;;5029913;29;20408;-74
2021/07/24 10:31:42;;;;;;;21.10;19.10;;;26.20;61.30;;;;;;5029331;29;20069;-75
2021/07/24 10:34:21;;;;;;;20.88;18.80;;;26.30;61.00;;;;;;5028940;29;20053;-74
2021/07/24 10:36:53;;;;;;;21.00;19.07;;;26.40;61.90;;;;;;5023741;29;20129;-74
2021/07/24 10:39:25;;;;;;;20.58;18.67;;;26.40;61.00;;;;;;5042971;29;20076;-75
2021/07/24 10:42:09;;;;;;;20.30;18.55;;;26.50;61.30;;;;;;5030710;29;20125;-75
2021/07/24 10:44:42;;;;;;;21.65;19.70;;;26.70;62.30;;;;;;5027165;29;20072;-74
2021/07/24 10:47:16;;;;;;;20.45;18.65;;;26.60;59.20;;;;;;5031994;29;20052;-75
2021/07/24 10:49:49;;;;;;;21.38;19.48;;;26.60;61.70;;;;;;5040926;29;20437;-71
2021/07/24 10:52:21;;;;;;;18.98;17.17;;;26.60;60.40;;;;;;5029052;29;20441;-75
2021/07/24 10:55:00;;;;;;;19.27;17.58;;;26.60;57.00;;;;;;5041402;29;20050;-75
2021/07/24 10:57:49;;;;;;;19.55;17.75;;;26.50;55.30;;;;;;5026850;29;20053;-74
2021/07/24 11:00:21;;;;;;;20.88;19.00;;;26.60;56.00;;;;;;5032094;29;20132;-75
2021/07/24 11:02:53;;;;;;;20.98;18.98;;;26.70;55.80;;;;;;5031845;29;20277;-75
2021/07/24 11:05:26;;;;;;;20.92;18.98;;;26.70;57.20;;;;;;5032902;29;20045;-75
2021/07/24 11:07:58;;;;;;;21.52;19.65;;;26.80;57.60;;;;;;5031592;29;20113;-75
2021/07/24 11:10:31;;;;;;;21.45;19.45;;;26.80;58.30;;;;;;5027200;29;20473;-74
2021/07/24 11:13:03;;;;;;;21.55;19.55;;;27.00;59.00;;;;;;5035212;29;20061;-74
2021/07/24 11:15:44;;;;;;;21.95;19.92;;;27.10;59.20;;;;;;5031027;29;20109;-74
2021/07/24 11:18:23;;;;;;;21.35;19.55;;;27.20;59.40;;;;;;5030220;29;20053;-74
2021/07/24 11:20:56;;;;;;;21.95;20.05;;;27.30;60.00;;;;;;5028678;29;20130;-74
2021/07/24 11:23:27;;;;;;;22.10;20.00;;;27.40;59.40;;;;;;5030051;29;20069;-74
2021/07/24 11:26:02;;;;;;;20.95;19.02;;;27.40;57.90;;;;;;5029861;29;20126;-74
2021/07/24 11:28:34;;;;;;;21.40;19.40;;;27.40;58.20;;;;;;5027518;29;20049;-73
2021/07/24 11:31:10;;;;;;;20.48;18.58;;;27.60;57.60;;;;;;5031114;29;20073;-74
2021/07/24 11:33:45;;;;;;;19.48;17.50;;;27.50;55.70;;;;;;5031936;29;20694;-74
2021/07/24 11:36:17;;;;;;;20.13;18.27;;;27.40;53.30;;;;;;5026696;29;20136;-74
2021/07/24 11:38:57;;;;;;;19.23;17.55;;;27.40;53.40;;;;;;5025886;29;20433;-73
2021/07/24 11:41:32;;;;;;;20.45;18.65;;;27.30;54.30;;;;;;5028037;29;20044;-75
2021/07/24 11:44:04;;;;;;;19.17;17.40;;;27.20;54.80;;;;;;5033555;29;20052;-75
2021/07/24 11:46:36;;;;;;;20.52;18.65;;;27.30;56.10;;;;;;5031794;29;20523;-75
2021/07/24 11:49:08;;;;;;;20.00;18.30;;;27.40;55.50;;;;;;5034008;29;20080;-74
2021/07/24 11:51:41;;;;;;;20.50;18.70;;;27.50;54.70;;;;;;5031983;29;20116;-74
2021/07/24 11:54:13;;;;;;;19.88;18.25;;;27.50;54.90;;;;;;5029240;29;20044;-75
2021/07/24 11:56:50;;;;;;;21.10;19.25;;;27.70;56.20;;;;;;5035571;29;20045;-74
2021/07/24 11:59:23;;;;;;;20.55;18.85;;;27.70;54.80;;;;;;5035052;29;20048;-74
2021/07/24 12:01:58;;;;;;;21.02;19.10;;;27.70;56.00;;;;;;5031266;29;20073;-74
2021/07/24 12:04:30;;;;;;;20.25;18.55;;;27.70;54.40;;;;;;5033981;29;20049;-75
2021/07/24 12:07:03;;;;;;;20.80;18.98;;;27.70;55.90;;;;;;5030860;29;20053;-75
2021/07/24 12:09:36;;;;;;;20.40;18.65;;;27.80;55.10;;;;;;5033421;29;20140;-73
2021/07/24 12:12:08;;;;;;;20.00;18.30;;;27.80;55.50;;;;;;5030825;29;20061;-74
2021/07/24 12:14:40;;;;;;;21.38;19.42;;;27.80;57.30;;;;;;5037715;29;20694;-73
2021/07/24 12:17:12;;;;;;;19.75;17.92;;;28.00;56.70;;;;;;5029614;29;20140;-73
2021/07/24 12:19:44;;;;;;;20.67;18.75;;;28.00;56.20;;;;;;5033510;29;21033;-73
2021/07/24 12:22:18;;;;;;;20.25;18.48;;;27.90;54.80;;;;;;5032756;29;20084;-74
2021/07/24 12:24:51;;;;;;;19.85;18.08;;;28.00;56.90;;;;;;5031998;29;20072;-73
2021/07/24 12:27:23;;;;;;;19.83;18.02;;;28.20;55.20;;;;;;5032173;29;20077;-75
2021/07/24 12:30:01;;;;;;;20.73;18.65;;;28.10;55.60;;;;;;5030337;29;20056;-75
2021/07/24 12:32:40;;;;;;;20.73;18.92;;;28.00;55.70;;;;;;5031042;29;20419;-73
2021/07/24 12:35:22;;;;;;;20.00;18.30;;;28.10;55.40;;;;;;5028324;29;20045;-73
2021/07/24 12:38:04;;;;;;;20.50;18.80;;;28.10;55.90;;;;;;5031248;29;20140;-73
2021/07/24 12:40:36;;;;;;;20.23;18.42;;;28.20;57.30;;;;;;5030164;29;20108;-74
2021/07/24 12:43:10;;;;;;;19.83;17.92;;;28.20;55.50;;;;;;5032060;29;20137;-74
2021/07/24 12:45:42;;;;;;;19.80;18.05;;;28.30;54.70;;;;;;5029012;29;20072;-74
2021/07/24 12:48:18;;;;;;;20.35;18.55;;;28.30;54.80;;;;;;5030740;29;20127;-74
2021/07/24 12:51:17;;;;;;;19.90;18.30;;;28.40;54.50;;;;;;5027284;29;20045;-74
2021/07/24 12:53:51;;;;;;;20.80;18.90;;;28.30;52.80;;;;;;5031092;29;20460;-74
2021/07/24 12:56:22;;;;;;;20.25;18.52;;;28.40;55.60;;;;;;5030073;29;20064;-75
2021/07/24 12:58:55;;;;;;;19.73;18.02;;;28.40;52.90;;;;;;5031472;29;20147;-76
2021/07/24 13:01:27;;;;;;;21.10;19.20;;;28.50;54.60;;;;;;5034121;29;20057;-75
2021/07/24 13:03:59;;;;;;;20.88;19.10;;;28.60;54.30;;;;;;5031721;29;20053;-73
2021/07/24 13:06:31;;;;;;;20.67;18.70;;;28.50;53.70;;;;;;5030868;29;20101;-73